Time;durP1;ratioP1;P1;durP2;ratioP2;P2;SDS_P1;SDS_P2;PMS_P1;PMS_P2;Temp;Humidity;BMP_temperature;BMP_pressure;BME280_temperature;BME280_humidity;BME280_pressure;Samples;Min_cycle;Max_cycle;Signal;HPM_P1;HPM_P2
2021/10/27 00:01:57;;;;;;;15.03;8.60;;;8.40;99.90;;;;;;5038595;28;20390;-55
2021/10/27 00:04:22;;;;;;;14.90;9.20;;;8.40;99.90;;;;;;5042797;28;20383;-55
2021/10/27 00:06:48;;;;;;;14.60;8.80;;;8.30;99.90;;;;;;5029088;28;20403;-55
2021/10/27 00:09:14;;;;;;;15.98;8.30;;;8.20;99.90;;;;;;5030086;28;20395;-55
2021/10/27 00:11:39;;;;;;;13.63;8.53;;;8.10;99.90;;;;;;5030029;28;20524;-55
2021/10/27 00:14:06;;;;;;;15.18;8.95;;;8.20;99.90;;;;;;5029031;28;20407;-55
2021/10/27 00:16:33;;;;;;;12.63;8.63;;;9.50;99.90;;;;;;5029908;28;20394;-55
2021/10/27 00:18:59;;;;;;;14.85;8.43;;;8.20;99.90;;;;;;5029318;28;20464;-55
2021/10/27 00:21:25;;;;;;;16.27;8.55;;;8.10;99.90;;;;;;5029661;28;20855;-56
2021/10/27 00:23:51;;;;;;;16.95;9.20;;;8.10;99.90;;;;;;5028837;28;20513;-55
2021/10/27 00:26:17;;;;;;;14.35;8.07;;;8.20;99.90;;;;;;5044801;28;20395;-55
2021/10/27 00:28:42;;;;;;;12.27;8.20;;;8.10;99.90;;;;;;5030956;28;20946;-57
2021/10/27 00:31:08;;;;;;;13.48;8.30;;;8.00;99.90;;;;;;5037214;28;20433;-54
2021/10/27 00:33:37;;;;;;;13.30;8.50;;;8.00;99.90;;;;;;5038792;28;20858;-55
2021/10/27 00:36:07;;;;;;;12.75;8.10;;;7.90;99.90;;;;;;5029042;28;20391;-56
2021/10/27 00:38:34;;;;;;;17.45;9.10;;;7.70;99.90;;;;;;5044652;28;20486;-55
2021/10/27 00:41:00;;;;;;;14.30;9.20;;;7.60;99.90;;;;;;5028624;28;20395;-55
2021/10/27 00:43:25;;;;;;;16.30;8.73;;;7.60;99.90;;;;;;5028684;28;20454;-55
2021/10/27 00:45:51;;;;;;;21.17;8.90;;;7.60;99.90;;;;;;5043841;28;20395;-55
2021/10/27 00:48:17;;;;;;;15.30;8.83;;;7.70;99.90;;;;;;5029665;28;20391;-55
2021/10/27 00:50:43;;;;;;;15.35;8.80;;;7.70;99.90;;;;;;5043947;28;20387;-57
2021/10/27 00:53:08;;;;;;;16.75;9.20;;;7.70;99.90;;;;;;5028808;28;20393;-55
2021/10/27 00:55:34;;;;;;;15.27;8.40;;;7.60;99.90;;;;;;5044179;28;21201;-55
2021/10/27 00:58:00;;;;;;;14.82;9.20;;;7.60;99.90;;;;;;5028168;28;20440;-56
2021/10/27 01:00:26;;;;;;;13.77;8.93;;;7.50;99.90;;;;;;5029053;28;20398;-55
2021/10/27 01:02:52;;;;;;;17.67;9.20;;;7.50;99.90;;;;;;5028296;28;20399;-56
2021/10/27 01:05:18;;;;;;;13.80;8.70;;;7.40;99.90;;;;;;5028759;28;20389;-54
2021/10/27 01:07:44;;;;;;;14.93;8.80;;;7.40;99.90;;;;;;5028905;28;20403;-57
2021/10/27 01:10:10;;;;;;;13.13;8.27;;;7.50;99.90;;;;;;5028755;28;20407;-56
2021/10/27 01:12:36;;;;;;;14.45;8.32;;;7.50;99.90;;;;;;5044415;28;20387;-55
2021/10/27 01:15:04;;;;;;;14.70;8.63;;;7.50;99.90;;;;;;5028191;28;20533;-56
2021/10/27 01:17:30;;;;;;;15.10;8.23;;;7.50;99.90;;;;;;5028628;28;20391;-54
2021/10/27 01:19:59;;;;;;;16.65;8.98;;;7.50;99.90;;;;;;5027728;28;20771;-54
2021/10/27 01:22:31;;;;;;;14.32;8.88;;;7.60;99.90;;;;;;5029254;28;20383;-54
2021/10/27 01:24:58;;;;;;;12.70;7.82;;;7.40;99.90;;;;;;5028061;28;20387;-53
2021/10/27 01:27:24;;;;;;;12.90;8.32;;;7.30;99.90;;;;;;5043798;28;20489;-54
2021/10/27 01:29:51;;;;;;;14.07;7.60;;;7.30;99.90;;;;;;5043613;28;20468;-54
2021/10/27 01:32:30;;;;;;;14.60;8.18;;;7.20;99.90;;;;;;5028609;28;20383;-54
2021/10/27 01:34:56;;;;;;;12.50;7.40;;;7.20;99.90;;;;;;5027697;28;20414;-54
2021/10/27 01:37:25;;;;;;;18.30;8.40;;;7.30;99.90;;;;;;5028849;28;20465;-54
2021/10/27 01:39:51;;;;;;;15.23;8.02;;;7.20;99.90;;;;;;5028086;28;20391;-56
2021/10/27 01:42:18;;;;;;;12.40;7.88;;;7.20;99.90;;;;;;5028419;28;20501;-54
2021/10/27 01:44:44;;;;;;;13.27;7.55;;;7.20;99.90;;;;;;5028429;28;20394;-55
2021/10/27 01:47:09;;;;;;;13.60;8.30;;;7.30;99.90;;;;;;5028215;28;20379;-54
2021/10/27 01:49:35;;;;;;;12.43;7.63;;;7.10;99.90;;;;;;5028328;28;20483;-54
2021/10/27 01:52:01;;;;;;;15.77;8.43;;;7.20;99.90;;;;;;5027713;28;20862;-54
2021/10/27 01:54:27;;;;;;;14.57;8.40;;;7.20;99.90;;;;;;5028879;28;20505;-53
2021/10/27 01:56:53;;;;;;;13.90;8.17;;;7.30;99.90;;;;;;5046635;28;20836;-54
2021/10/27 01:59:21;;;;;;;15.27;9.40;;;7.20;99.90;;;;;;5032273;28;20387;-53
2021/10/27 02:01:47;;;;;;;14.10;8.75;;;7.20;99.90;;;;;;5031546;28;20867;-55
2021/10/27 02:04:14;;;;;;;14.70;8.63;;;7.20;99.90;;;;;;5031954;28;20391;-54
2021/10/27 02:06:40;;;;;;;15.47;9.00;;;7.10;99.90;;;;;;5031691;28;20874;-55
2021/10/27 02:09:05;;;;;;;13.23;7.95;;;7.20;99.90;;;;;;5031675;28;21171;-55
2021/10/27 02:11:31;;;;;;;15.50;8.80;;;7.20;99.90;;;;;;5031887;28;20903;-55
2021/10/27 02:13:57;;;;;;;15.45;9.27;;;7.30;99.90;;;;;;5031114;28;20530;-54
2021/10/27 02:16:23;;;;;;;14.13;8.23;;;7.30;99.90;;;;;;5031776;28;20419;-54
2021/10/27 02:18:48;;;;;;;15.15;8.25;;;7.10;99.90;;;;;;5034216;28;20426;-55
2021/10/27 02:21:14;;;;;;;18.53;9.23;;;7.00;99.90;;;;;;5043262;28;20469;-54
2021/10/27 02:23:40;;;;;;;14.45;9.02;;;7.00;99.90;;;;;;5041310;28;20478;-54
2021/10/27 02:26:06;;;;;;;17.58;9.23;;;7.10;99.90;;;;;;5049829;28;20388;-54
2021/10/27 02:28:31;;;;;;;15.77;8.70;;;7.10;99.90;;;;;;5051721;28;20454;-55
2021/10/27 02:30:57;;;;;;;16.75;9.05;;;7.10;99.90;;;;;;5050657;28;20861;-55
2021/10/27 02:33:23;;;;;;;17.07;9.50;;;7.10;99.90;;;;;;5051202;28;20397;-55
2021/10/27 02:35:48;;;;;;;15.07;8.80;;;7.20;99.90;;;;;;5050540;28;20877;-55
2021/10/27 02:38:15;;;;;;;18.30;10.47;;;7.20;99.90;;;;;;5051526;28;20385;-55
2021/10/27 02:40:40;;;;;;;15.07;9.57;;;7.30;99.90;;;;;;5051433;28;20484;-54
2021/10/27 02:43:06;;;;;;;12.52;8.40;;;7.20;99.90;;;;;;5050795;28;20532;-54
2021/10/27 02:45:32;;;;;;;14.68;9.25;;;7.40;99.90;;;;;;5051388;28;20385;-54
2021/10/27 02:47:57;;;;;;;15.07;9.33;;;7.30;99.90;;;;;;5050153;28;20849;-54
2021/10/27 02:50:23;;;;;;;15.15;9.15;;;7.40;99.90;;;;;;5049934;28;20854;-54
2021/10/27 02:52:49;;;;;;;16.03;9.20;;;7.30;99.90;;;;;;5050346;28;20940;-54
2021/10/27 02:55:15;;;;;;;13.90;8.48;;;7.30;99.90;;;;;;5049694;28;20624;-55
2021/10/27 02:57:41;;;;;;;14.63;8.70;;;7.30;99.90;;;;;;5051005;28;20385;-55
2021/10/27 03:00:08;;;;;;;14.57;9.10;;;7.30;99.90;;;;;;5050067;28;20947;-55
2021/10/27 03:02:35;;;;;;;15.88;9.02;;;7.30;99.90;;;;;;5050795;28;20377;-55
2021/10/27 03:05:01;;;;;;;13.50;8.40;;;7.20;99.90;;;;;;5050087;28;20391;-58
2021/10/27 03:07:27;;;;;;;13.05;7.50;;;7.30;99.90;;;;;;5050566;28;20744;-55
2021/10/27 03:09:52;;;;;;;14.25;7.60;;;7.20;99.90;;;;;;5050048;28;20501;-55
2021/10/27 03:12:18;;;;;;;12.10;7.10;;;7.10;99.90;;;;;;5050633;28;20460;-55
2021/10/27 03:14:45;;;;;;;13.95;7.45;;;7.00;99.90;;;;;;5050478;28;20484;-54
2021/10/27 03:17:11;;;;;;;13.38;7.25;;;6.90;99.90;;;;;;5050088;28;20468;-54
2021/10/27 03:19:38;;;;;;;18.02;8.43;;;6.90;99.90;;;;;;5050697;28;20389;-55
2021/10/27 03:22:04;;;;;;;13.52;7.68;;;6.90;99.90;;;;;;5049841;28;20413;-54
2021/10/27 03:24:30;;;;;;;12.98;7.97;;;6.90;99.90;;;;;;5050658;28;20417;-55
2021/10/27 03:26:56;;;;;;;13.40;8.02;;;6.90;99.90;;;;;;5050022;28;20463;-54
2021/10/27 03:29:22;;;;;;;13.53;8.40;;;6.80;99.90;;;;;;5050232;28;20382;-54
2021/10/27 03:31:48;;;;;;;13.40;8.32;;;6.50;99.90;;;;;;5049896;28;20737;-56
2021/10/27 03:34:13;;;;;;;15.50;9.50;;;6.50;99.90;;;;;;5049931;28;20397;-54
2021/10/27 03:36:39;;;;;;;18.27;9.10;;;6.50;99.90;;;;;;5050075;28;20401;-54
2021/10/27 03:39:05;;;;;;;18.85;9.00;;;6.40;99.90;;;;;;5049270;28;20396;-54
2021/10/27 03:41:31;;;;;;;22.83;10.52;;;6.20;99.90;;;;;;5050332;28;20386;-55
2021/10/27 03:43:56;;;;;;;25.27;10.60;;;6.30;99.90;;;;;;5049547;28;20472;-55
2021/10/27 03:46:23;;;;;;;27.58;12.15;;;6.30;99.90;;;;;;5050176;28;20864;-55
2021/10/27 03:48:49;;;;;;;22.58;10.32;;;6.30;99.90;;;;;;5049161;28;20872;-56
2021/10/27 03:51:15;;;;;;;24.50;11.97;;;6.30;99.90;;;;;;5049883;28;20468;-55
2021/10/27 03:53:41;;;;;;;31.17;11.38;;;6.20;99.90;;;;;;5049638;28;20406;-55
2021/10/27 03:56:07;;;;;;;21.67;11.00;;;6.20;99.90;;;;;;5049387;28;20389;-55
2021/10/27 03:58:33;;;;;;;22.33;11.55;;;6.30;99.90;;;;;;5049859;28;20386;-55
2021/10/27 04:01:02;;;;;;;19.55;11.55;;;6.20;99.90;;;;;;5049370;28;20880;-55
2021/10/27 04:03:28;;;;;;;21.88;12.00;;;6.20;99.90;;;;;;5050300;28;20381;-55
2021/10/27 04:05:55;;;;;;;20.60;11.45;;;6.20;99.90;;;;;;5047948;28;20382;-55
2021/10/27 04:08:21;;;;;;;18.15;11.68;;;6.20;99.90;;;;;;5048378;28;20963;-55
2021/10/27 04:10:47;;;;;;;21.00;11.65;;;6.40;99.90;;;;;;5042546;28;20412;-56
2021/10/27 04:13:14;;;;;;;19.27;12.37;;;6.40;99.90;;;;;;5045021;28;20387;-55
2021/10/27 04:15:40;;;;;;;20.30;11.80;;;6.50;99.90;;;;;;5039706;28;20869;-55
2021/10/27 04:18:05;;;;;;;20.65;12.20;;;6.50;99.90;;;;;;5048476;28;20381;-55
2021/10/27 04:20:31;;;;;;;16.43;10.80;;;6.50;99.90;;;;;;5049653;28;20400;-55
2021/10/27 04:22:57;;;;;;;19.85;12.27;;;6.50;99.90;;;;;;5049069;28;20478;-54
2021/10/27 04:25:22;;;;;;;19.77;12.10;;;6.50;99.90;;;;;;5081849;28;20406;-55
2021/10/27 04:27:48;;;;;;;19.60;12.00;;;6.50;99.90;;;;;;5039072;28;20436;-57
2021/10/27 04:30:14;;;;;;;21.07;12.10;;;6.60;99.90;;;;;;5068743;28;20480;-55
2021/10/27 04:32:41;;;;;;;21.67;13.18;;;6.60;99.90;;;;;;5033998;28;20383;-55
2021/10/27 04:35:08;;;;;;;19.58;12.20;;;6.60;99.90;;;;;;5028776;28;21040;-54
2021/10/27 04:37:38;;;;;;;20.67;11.70;;;6.40;99.90;;;;;;5029187;28;20416;-55
2021/10/27 04:40:06;;;;;;;25.67;14.10;;;6.50;99.90;;;;;;5028917;28;20389;-55
2021/10/27 04:42:32;;;;;;;26.35;13.90;;;6.40;99.90;;;;;;5044776;28;20440;-54
2021/10/27 04:44:57;;;;;;;23.90;14.20;;;6.40;99.90;;;;;;5028618;28;20755;-55
2021/10/27 04:47:23;;;;;;;27.23;15.00;;;6.40;99.90;;;;;;5061192;28;20793;-55
2021/10/27 04:49:49;;;;;;;27.20;15.67;;;6.50;99.90;;;;;;5028798;28;20398;-56
2021/10/27 04:52:14;;;;;;;29.92;16.20;;;6.50;99.90;;;;;;5028804;28;20415;-55
2021/10/27 04:54:40;;;;;;;28.80;16.50;;;6.60;99.90;;;;;;5029236;28;20482;-55
2021/10/27 04:57:06;;;;;;;33.67;16.47;;;6.70;99.90;;;;;;5028264;28;20399;-59
2021/10/27 04:59:39;;;;;;;42.55;17.40;;;6.80;99.90;;;;;;5028880;28;20453;-55
2021/10/27 05:02:05;;;;;;;37.40;17.70;;;6.80;99.90;;;;;;5028210;28;20391;-55
2021/10/27 05:04:30;;;;;;;34.30;16.87;;;6.80;99.90;;;;;;5029198;28;20379;-55
2021/10/27 05:06:56;;;;;;;32.58;16.58;;;6.80;99.90;;;;;;5028120;28;20391;-55
2021/10/27 05:09:22;;;;;;;29.73;17.10;;;6.90;99.90;;;;;;5061236;28;20481;-55
2021/10/27 05:11:47;;;;;;;29.27;15.90;;;6.90;99.90;;;;;;5037075;28;20964;-56
2021/10/27 05:14:13;;;;;;;31.67;16.50;;;7.00;99.90;;;;;;5042719;28;20929;-55
2021/10/27 05:16:42;;;;;;;32.30;16.95;;;7.00;99.90;;;;;;5040055;28;20797;-55
2021/10/27 05:19:07;;;;;;;33.20;16.80;;;7.10;99.90;;;;;;5047949;28;21017;-55
2021/10/27 05:21:33;;;;;;;24.90;15.20;;;7.10;99.90;;;;;;5048507;28;20378;-55
2021/10/27 05:23:58;;;;;;;23.50;14.43;;;7.20;99.90;;;;;;5047693;28;20743;-55
2021/10/27 05:26:24;;;;;;;24.60;14.35;;;7.40;99.90;;;;;;5048058;28;20834;-55
2021/10/27 05:28:50;;;;;;;23.93;15.07;;;7.30;99.90;;;;;;5048507;28;20879;-56
2021/10/27 05:31:17;;;;;;;23.15;13.93;;;7.20;99.90;;;;;;5052660;28;20398;-54
2021/10/27 05:33:42;;;;;;;25.35;15.20;;;7.20;99.90;;;;;;5052408;28;20404;-55
2021/10/27 05:36:08;;;;;;;29.37;18.33;;;7.30;99.90;;;;;;5050499;28;20911;-54
2021/10/27 05:38:34;;;;;;;31.58;18.50;;;7.40;99.90;;;;;;5052746;28;20746;-55
2021/10/27 05:40:59;;;;;;;29.83;17.63;;;7.30;99.90;;;;;;5051448;28;21305;-55
2021/10/27 05:43:26;;;;;;;29.75;16.85;;;7.20;99.90;;;;;;5050731;28;20951;-55
2021/10/27 05:45:55;;;;;;;25.10;14.98;;;7.20;99.90;;;;;;5050458;28;20920;-57
2021/10/27 05:48:22;;;;;;;24.85;15.38;;;7.20;99.90;;;;;;5044314;28;20815;-55
2021/10/27 05:56:29;;;;;;;24.98;14.52;;;7.20;99.90;;;;;;5051291;28;20493;-55
2021/10/27 05:58:56;;;;;;;26.33;15.57;;;7.20;99.90;;;;;;5048304;28;20415;-55
2021/10/27 06:01:21;;;;;;;23.63;15.00;;;7.30;99.90;;;;;;5051995;28;20396;-55
2021/10/27 06:03:47;;;;;;;22.83;13.90;;;7.40;99.90;;;;;;5040406;28;20863;-55
2021/10/27 06:06:13;;;;;;;25.05;14.23;;;7.50;99.90;;;;;;5051346;28;20384;-55
2021/10/27 06:08:39;;;;;;;23.60;13.80;;;7.50;99.90;;;;;;5052441;28;20401;-55
2021/10/27 06:11:13;;;;;;;23.15;13.57;;;7.60;99.90;;;;;;5051541;28;20839;-55
2021/10/27 06:13:46;;;;;;;23.80;13.40;;;7.70;99.90;;;;;;5050541;28;20812;-55
2021/10/27 06:16:13;;;;;;;21.00;12.67;;;7.80;99.90;;;;;;5050981;28;20713;-56
2021/10/27 06:18:40;;;;;;;22.02;13.70;;;7.90;99.90;;;;;;5051176;28;20988;-55
2021/10/27 06:21:09;;;;;;;20.70;12.75;;;8.10;99.90;;;;;;5050039;28;20759;-55
2021/10/27 06:23:36;;;;;;;21.43;12.80;;;8.10;99.90;;;;;;5051409;28;20373;-55
2021/10/27 06:26:03;;;;;;;20.63;13.50;;;8.20;99.90;;;;;;5051056;28;20386;-54
2021/10/27 06:28:31;;;;;;;20.45;13.40;;;8.10;99.90;;;;;;5051627;28;20393;-55
2021/10/27 06:31:05;;;;;;;20.73;13.35;;;8.10;99.90;;;;;;5045931;28;20403;-55
2021/10/27 06:33:45;;;;;;;19.75;12.70;;;8.10;99.90;;;;;;5044630;28;20868;-54
2021/10/27 06:36:26;;;;;;;17.52;12.02;;;8.10;99.90;;;;;;5051215;28;20382;-55
2021/10/27 06:46:50;;;;;;;18.80;11.02;;;8.10;99.90;;;;;;5048903;28;20381;-57
2021/10/27 06:49:16;;;;;;;20.03;11.60;;;8.10;99.90;;;;;;5048663;28;21210;-55
2021/10/27 06:51:42;;;;;;;19.88;12.20;;;8.10;99.90;;;;;;5050885;28;20398;-55
2021/10/27 06:54:08;;;;;;;17.13;10.80;;;8.10;99.90;;;;;;5049829;28;20487;-55
2021/10/27 06:56:35;;;;;;;18.67;10.40;;;8.40;99.90;;;;;;5047772;28;20476;-55
2021/10/27 07:17:14;;;;;;;13.13;9.00;;;12.20;99.90;;;;;;5045521;28;20574;-56
2021/10/27 07:19:40;;;;;;;16.15;8.90;;;13.00;99.90;;;;;;5046436;28;20948;-57
2021/10/27 07:22:06;;;;;;;14.40;9.50;;;14.10;99.90;;;;;;5046242;28;20392;-56
2021/10/27 07:24:33;;;;;;;14.55;8.85;;;14.80;99.90;;;;;;5047574;28;20377;-56
2021/10/27 07:27:03;;;;;;;13.20;9.00;;;15.30;99.90;;;;;;5049333;28;20864;-57
2021/10/27 07:29:29;;;;;;;13.70;8.50;;;15.70;99.90;;;;;;5049810;28;20389;-56
2021/10/27 07:31:56;;;;;;;13.00;8.90;;;16.00;99.90;;;;;;5048404;28;20402;-58
2021/10/27 07:34:30;;;;;;;13.55;10.90;;;16.50;99.90;;;;;;5032326;28;20448;-57
2021/10/27 07:42:18;;;;;;;17.30;13.90;;;17.30;99.90;;;;;;5049949;28;20383;-56
2021/10/27 07:44:44;;;;;;;15.25;12.80;;;18.20;99.90;;;;;;5048128;28;20385;-56
2021/10/27 07:47:11;;;;;;;15.05;12.63;;;18.20;99.90;;;;;;5043641;28;20393;-56
2021/10/27 07:49:37;;;;;;;13.45;8.65;;;18.60;99.90;;;;;;5038552;28;20412;-56
2021/10/27 07:52:04;;;;;;;16.90;12.80;;;18.40;99.90;;;;;;5043718;28;20412;-56
2021/10/27 07:54:30;;;;;;;15.38;11.68;;;17.40;99.90;;;;;;5045694;28;20445;-56
2021/10/27 07:56:56;;;;;;;13.30;11.90;;;17.50;99.90;;;;;;5047881;28;20892;-55
2021/10/27 07:59:21;;;;;;;16.95;12.85;;;17.30;99.90;;;;;;5049633;28;20378;-55
2021/10/27 08:01:48;;;;;;;18.98;14.50;;;17.90;99.90;;;;;;5046910;28;20404;-55
2021/10/27 08:04:14;;;;;;;13.10;9.13;;;18.80;99.90;;;;;;5045530;28;20404;-57
2021/10/27 08:06:40;;;;;;;12.80;11.13;;;19.90;99.90;;;;;;5048356;28;20389;-58
2021/10/27 08:09:05;;;;;;;15.00;12.05;;;20.80;98.80;;;;;;5046061;28;20444;-56
2021/10/27 08:11:31;;;;;;;14.43;8.88;;;21.10;97.30;;;;;;5048151;28;20436;-57
2021/10/27 08:13:58;;;;;;;14.80;9.30;;;21.50;94.90;;;;;;5048482;28;20440;-56
2021/10/27 08:16:25;;;;;;;14.85;10.30;;;20.40;95.70;;;;;;5048136;28;20397;-57
2021/10/27 08:18:51;;;;;;;16.35;14.65;;;19.70;97.60;;;;;;5049343;28;20718;-57
2021/10/27 08:21:17;;;;;;;16.35;11.80;;;20.30;96.40;;;;;;5048232;28;20435;-57
2021/10/27 08:23:44;;;;;;;12.80;10.45;;;21.00;95.70;;;;;;5049331;28;20397;-56
2021/10/27 08:26:15;;;;;;;12.90;10.52;;;21.90;93.90;;;;;;5047747;28;20455;-57
2021/10/27 08:28:42;;;;;;;21.80;19.80;;;22.20;91.90;;;;;;5049482;28;20374;-58
2021/10/27 08:31:15;;;;;;;17.73;16.02;;;21.20;93.20;;;;;;5046406;28;20484;-58
2021/10/27 08:36:07;;;;;;;12.77;9.50;;;21.10;93.70;;;;;;5048671;28;20385;-60
2021/10/27 08:38:35;;;;;;;14.25;9.38;;;22.00;92.00;;;;;;5049616;28;20869;-58
2021/10/27 08:41:02;;;;;;;15.15;9.73;;;22.20;91.40;;;;;;5048070;28;20459;-58
2021/10/27 08:43:29;;;;;;;13.88;9.23;;;21.60;91.80;;;;;;5049206;28;20377;-57
2021/10/27 08:45:55;;;;;;;14.18;9.27;;;20.80;93.10;;;;;;5046700;28;20408;-58
2021/10/27 08:48:21;;;;;;;13.95;9.25;;;20.20;94.80;;;;;;5048795;28;20385;-56
2021/10/27 08:50:49;;;;;;;16.40;10.50;;;20.00;95.50;;;;;;5049182;28;20380;-56
2021/10/27 08:53:21;;;;;;;14.70;9.50;;;20.30;95.10;;;;;;5047093;28;21031;-56
2021/10/27 08:55:49;;;;;;;13.18;9.77;;;21.10;94.10;;;;;;5038761;28;20503;-58
2021/10/27 08:58:21;;;;;;;14.02;10.07;;;22.00;92.30;;;;;;5044509;28;20405;-58
2021/10/27 09:01:01;;;;;;;16.00;10.13;;;22.00;92.10;;;;;;5036240;28;20406;-61
2021/10/27 09:06:07;;;;;;;13.80;10.40;;;21.80;91.50;;;;;;5045979;28;20483;-57
2021/10/27 09:09:12;;;;;;;13.70;9.52;;;21.90;91.50;;;;;;5028812;28;20506;-57
2021/10/27 09:34:56;;;;;;;16.63;14.82;;;23.70;84.20;;;;;;5048788;28;20404;-57
2021/10/27 09:40:15;;;;;;;19.42;17.52;;;22.70;87.60;;;;;;5048852;28;20405;-58
2021/10/27 09:43:05;;;;;;;17.23;12.63;;;22.50;88.80;;;;;;5048877;28;20460;-58
2021/10/27 10:05:21;;;;;;;16.63;14.90;;;22.80;85.10;;;;;;5047855;28;20381;-58
2021/10/27 10:07:48;;;;;;;15.25;13.23;;;22.60;85.50;;;;;;5048250;28;20864;-58
2021/10/27 10:10:15;;;;;;;16.85;12.18;;;22.70;87.20;;;;;;5047560;28;20901;-58
2021/10/27 10:12:45;;;;;;;15.00;13.50;;;22.60;86.90;;;;;;5048419;28;20436;-58
2021/10/27 10:15:12;;;;;;;16.10;13.33;;;22.60;86.30;;;;;;5047730;28;20409;-58
2021/10/27 10:17:45;;;;;;;17.48;13.60;;;22.80;86.50;;;;;;5051691;28;20389;-59
2021/10/27 10:20:12;;;;;;;15.27;13.60;;;22.60;85.30;;;;;;5051676;28;20405;-59
2021/10/27 10:22:39;;;;;;;13.93;12.55;;;22.20;87.70;;;;;;5050600;28;20385;-58
2021/10/27 10:25:26;;;;;;;13.87;12.47;;;22.10;86.90;;;;;;5051093;28;20377;-58
2021/10/27 10:28:16;;;;;;;15.10;12.98;;;22.80;85.00;;;;;;5051672;28;20378;-58
2021/10/27 10:31:04;;;;;;;14.63;13.02;;;22.90;84.20;;;;;;5051800;28;20872;-58
2021/10/27 10:33:43;;;;;;;13.10;11.75;;;22.30;87.30;;;;;;5051915;28;20381;-58
2021/10/27 10:36:32;;;;;;;14.23;12.73;;;22.50;85.70;;;;;;5050547;28;20390;-58
2021/10/27 10:56:58;;;;;;;13.57;10.57;;;23.60;81.10;;;;;;5050780;28;20408;-59
2021/10/27 11:22:54;;;;;;;11.55;8.70;;;20.00;89.50;;;;;;5049930;28;20376;-57
2021/10/27 11:42:20;;;;;;;11.95;8.70;;;19.20;91.20;;;;;;5050077;28;20469;-60
2021/10/27 11:45:09;;;;;;;13.00;8.50;;;19.20;91.70;;;;;;5050361;28;20389;-58
2021/10/27 11:47:36;;;;;;;10.60;8.40;;;19.30;92.30;;;;;;5049865;28;20722;-56
2021/10/27 11:50:04;;;;;;;10.73;8.25;;;19.40;91.60;;;;;;5049232;28;20460;-57
2021/10/27 11:52:32;;;;;;;13.13;7.80;;;19.60;91.00;;;;;;5049468;28;20378;-55
2021/10/27 11:54:59;;;;;;;8.82;7.10;;;19.60;90.20;;;;;;5049532;28;20486;-59
2021/10/27 11:57:33;;;;;;;9.43;7.13;;;19.40;91.10;;;;;;5035988;28;20437;-56
2021/10/27 11:59:59;;;;;;;10.10;7.20;;;19.30;90.80;;;;;;5029603;28;20897;-58
2021/10/27 12:02:26;;;;;;;6.97;6.10;;;19.40;90.70;;;;;;5029989;28;20383;-57
2021/10/27 12:04:53;;;;;;;8.18;6.60;;;19.10;90.20;;;;;;5030079;28;20390;-58
2021/10/27 12:07:53;;;;;;;8.95;6.50;;;19.10;91.10;;;;;;5028728;28;21031;-57
2021/10/27 12:12:48;;;;;;;8.50;6.53;;;18.90;91.80;;;;;;5030085;28;20374;-56
2021/10/27 12:18:09;;;;;;;7.00;5.40;;;19.10;89.60;;;;;;5028122;28;20407;-58
2021/10/27 12:20:36;;;;;;;7.07;5.70;;;19.20;90.00;;;;;;5029633;28;20379;-57
2021/10/27 12:23:08;;;;;;;7.18;5.70;;;19.20;90.10;;;;;;5029183;28;20422;-59
2021/10/27 12:25:33;;;;;;;7.75;5.32;;;19.00;90.20;;;;;;5061639;28;20824;-56
2021/10/27 12:28:06;;;;;;;7.90;5.70;;;19.00;90.10;;;;;;5029199;28;20407;-60
2021/10/27 12:30:44;;;;;;;7.35;5.40;;;19.00;89.80;;;;;;5029620;28;20449;-57
2021/10/27 12:33:10;;;;;;;6.80;4.70;;;19.00;89.10;;;;;;5028648;28;21013;-57
2021/10/27 12:35:36;;;;;;;8.38;5.20;;;19.00;88.60;;;;;;5029261;28;20423;-55
2021/10/27 12:38:29;;;;;;;8.53;5.90;;;18.90;89.20;;;;;;5028684;28;20500;-61
2021/10/27 12:41:01;;;;;;;7.70;5.47;;;18.80;90.20;;;;;;5029603;28;20384;-58
2021/10/27 12:43:34;;;;;;;8.68;4.90;;;19.00;88.90;;;;;;5028879;28;20375;-58
2021/10/27 12:45:59;;;;;;;7.33;5.73;;;18.90;87.40;;;;;;5045935;28;20400;-61
2021/10/27 12:48:35;;;;;;;7.15;5.13;;;18.90;90.00;;;;;;5048326;28;20381;-58
2021/10/27 12:51:09;;;;;;;6.60;4.88;;;19.00;86.40;;;;;;5048255;28;20769;-61
2021/10/27 12:53:46;;;;;;;6.80;4.70;;;19.10;87.60;;;;;;5042330;28;20484;-56
2021/10/27 12:56:17;;;;;;;8.73;5.50;;;18.50;86.60;;;;;;5041956;28;20415;-56
2021/10/27 12:58:58;;;;;;;8.15;5.78;;;19.40;87.30;;;;;;5043126;28;20414;-57
2021/10/27 13:04:09;;;;;;;7.30;4.55;;;19.00;85.90;;;;;;5039272;28;20920;-58
2021/10/27 13:14:46;;;;;;;7.10;4.07;;;19.00;85.50;;;;;;5059282;28;20424;-57
2021/10/27 13:30:46;;;;;;;7.97;6.20;;;19.30;86.80;;;;;;5062323;28;20402;-57
2021/10/27 13:33:13;;;;;;;8.63;6.38;;;19.30;87.30;;;;;;5059508;28;20407;-58
2021/10/27 13:35:39;;;;;;;8.90;6.03;;;19.40;86.60;;;;;;5056353;28;20812;-58
2021/10/27 13:38:05;;;;;;;8.00;5.85;;;19.20;85.70;;;;;;5058952;28;20399;-58
2021/10/27 13:40:32;;;;;;;8.75;5.90;;;19.00;83.60;;;;;;5068285;28;20763;-59
2021/10/27 13:43:03;;;;;;;8.13;6.50;;;19.00;85.30;;;;;;5057351;28;20646;-59
2021/10/27 13:45:36;;;;;;;9.27;5.63;;;18.90;86.90;;;;;;5051561;28;20519;-57
2021/10/27 13:48:14;;;;;;;9.37;6.40;;;19.00;87.00;;;;;;5048379;28;20397;-61
2021/10/27 14:09:39;;;;;;;7.90;6.20;;;19.20;85.80;;;;;;5030809;28;20387;-56
2021/10/27 14:14:53;;;;;;;8.30;5.35;;;19.00;86.30;;;;;;5031285;28;20402;-57
2021/10/27 14:39:51;;;;;;;6.97;5.45;;;18.90;85.90;;;;;;5031756;28;20387;-58
2021/10/27 15:19:56;;;;;;;6.53;4.40;;;17.90;93.50;;;;;;5048274;28;20847;-58
2021/10/27 15:33:44;;;;;;;13.52;6.93;;;17.40;96.50;;;;;;5030285;28;20482;-58
2021/10/27 15:51:50;;;;;;;11.25;4.80;;;16.90;98.80;;;;;;5029907;28;20428;-57
2021/10/27 15:54:16;;;;;;;8.90;4.80;;;16.70;99.90;;;;;;5029099;28;20874;-57
2021/10/27 15:56:43;;;;;;;10.70;5.38;;;16.50;99.90;;;;;;5052718;28;20466;-58
2021/10/27 15:59:09;;;;;;;16.58;5.57;;;16.30;99.90;;;;;;5049348;28;20416;-58
2021/10/27 16:01:35;;;;;;;8.75;5.30;;;16.20;99.90;;;;;;5049544;28;20429;-58
2021/10/27 16:04:01;;;;;;;11.40;6.40;;;16.20;99.90;;;;;;5049961;28;20431;-58
2021/10/27 16:06:28;;;;;;;14.83;7.00;;;16.10;99.90;;;;;;5047659;28;20393;-58
2021/10/27 16:08:59;;;;;;;16.23;7.47;;;16.10;99.90;;;;;;5050036;28;20883;-58
2021/10/27 16:11:24;;;;;;;14.82;7.80;;;15.90;99.90;;;;;;5049178;28;20401;-58
2021/10/27 16:13:51;;;;;;;16.70;8.43;;;15.60;99.90;;;;;;5048551;28;20385;-58
2021/10/27 16:16:17;;;;;;;17.70;9.20;;;15.40;99.90;;;;;;5048472;28;20433;-57
2021/10/27 16:18:43;;;;;;;18.37;9.30;;;15.20;99.90;;;;;;5049702;28;20401;-58
2021/10/27 16:21:10;;;;;;;16.70;9.65;;;15.10;99.90;;;;;;5048719;28;20413;-58
2021/10/27 16:23:36;;;;;;;18.27;9.40;;;15.00;99.90;;;;;;5049624;28;20389;-58
2021/10/27 16:26:02;;;;;;;14.48;7.68;;;14.90;99.90;;;;;;5049551;28;20385;-58
2021/10/27 16:28:28;;;;;;;11.63;6.45;;;14.70;99.90;;;;;;5048618;28;20392;-58
2021/10/27 16:30:54;;;;;;;11.70;5.50;;;14.50;99.90;;;;;;5049264;28;20389;-58
2021/10/27 16:33:22;;;;;;;14.20;6.10;;;14.30;99.90;;;;;;5048598;28;20388;-58
2021/10/27 16:35:49;;;;;;;10.98;5.90;;;14.10;99.90;;;;;;5049370;28;20555;-58
2021/10/27 16:38:15;;;;;;;10.13;5.22;;;14.00;99.90;;;;;;5046957;28;20389;-58
2021/10/27 16:40:41;;;;;;;10.18;5.10;;;14.00;99.90;;;;;;5049288;28;20381;-58
2021/10/27 16:43:07;;;;;;;12.93;5.70;;;14.00;99.90;;;;;;5047261;28;20389;-60
2021/10/27 16:45:33;;;;;;;14.55;6.70;;;13.90;99.90;;;;;;5048472;28;20378;-56
2021/10/27 16:48:01;;;;;;;11.90;5.65;;;13.70;99.90;;;;;;5049322;28;20733;-58
2021/10/27 16:50:27;;;;;;;12.88;6.18;;;13.60;99.90;;;;;;5047821;28;21210;-57
2021/10/27 16:52:56;;;;;;;12.05;7.38;;;13.50;99.90;;;;;;5048935;28;20388;-56
2021/10/27 16:55:23;;;;;;;12.32;6.60;;;13.40;99.90;;;;;;5047917;28;20958;-57
2021/10/27 16:57:57;;;;;;;16.20;7.90;;;13.30;99.90;;;;;;5049159;28;20883;-56
2021/10/27 17:00:26;;;;;;;19.50;9.25;;;13.20;99.90;;;;;;5047909;28;20523;-56
2021/10/27 17:02:52;;;;;;;13.98;8.60;;;13.20;99.90;;;;;;5048659;28;20871;-56
2021/10/27 17:05:18;;;;;;;17.00;8.35;;;13.20;99.90;;;;;;5047817;28;20381;-56
2021/10/27 17:07:43;;;;;;;21.87;9.17;;;13.20;99.90;;;;;;5080742;28;20411;-56
2021/10/27 17:10:12;;;;;;;14.43;9.30;;;13.10;99.90;;;;;;5047662;28;20413;-56
2021/10/27 17:12:38;;;;;;;15.57;8.88;;;13.10;99.90;;;;;;5048770;28;20458;-56
2021/10/27 17:15:07;;;;;;;16.92;9.48;;;13.00;99.90;;;;;;5047942;28;20441;-59
2021/10/27 17:17:33;;;;;;;17.67;9.90;;;13.00;99.90;;;;;;5046948;28;20749;-56
2021/10/27 17:19:59;;;;;;;18.00;9.70;;;12.90;99.90;;;;;;5048927;28;20405;-56
2021/10/27 17:22:27;;;;;;;22.50;10.35;;;12.90;99.90;;;;;;5048251;28;20393;-56
2021/10/27 17:24:53;;;;;;;20.55;12.82;;;12.90;99.90;;;;;;5049554;28;20417;-56
2021/10/27 17:27:20;;;;;;;17.88;11.10;;;12.70;99.90;;;;;;5052145;28;20436;-56
2021/10/27 17:29:46;;;;;;;16.77;10.48;;;12.70;99.90;;;;;;5052778;28;20381;-56